createdAt,value
2022-11-03T00:01:52.318Z,3.17
2022-11-03T00:04:20.591Z,3.77
2022-11-03T00:06:48.359Z,3.10
2022-11-03T00:09:16.194Z,2.73
2022-11-03T00:11:44.061Z,3.83
2022-11-03T00:14:13.167Z,3.17
2022-11-03T00:16:40.331Z,3.80
2022-11-03T00:19:07.935Z,3.47
2022-11-03T00:21:35.001Z,3.33
2022-11-03T00:24:02.128Z,3.93
2022-11-03T00:26:29.864Z,4.50
2022-11-03T00:28:57.881Z,3.60
2022-11-03T00:31:26.811Z,4.07
2022-11-03T00:33:54.254Z,3.20
2022-11-03T00:36:22.772Z,3.77
2022-11-03T00:38:49.953Z,3.73
2022-11-03T00:41:17.712Z,4.10
2022-11-03T00:43:44.877Z,3.90
2022-11-03T00:46:12.158Z,4.07
2022-11-03T00:48:40.814Z,3.77
2022-11-03T00:51:09.247Z,4.00
2022-11-03T00:53:37.856Z,3.97
2022-11-03T00:56:05.701Z,4.57
2022-11-03T00:58:33.203Z,4.00
2022-11-03T01:01:04.706Z,3.30
2022-11-03T01:03:32.734Z,3.60
2022-11-03T01:06:01.369Z,3.70
2022-11-03T01:08:32.421Z,4.03
2022-11-03T01:11:05.078Z,4.40
2022-11-03T01:13:32.144Z,4.27
2022-11-03T01:15:59.332Z,4.07
2022-11-03T01:18:26.396Z,3.93
2022-11-03T01:20:56.811Z,3.90
2022-11-03T01:23:25.246Z,3.93
2022-11-03T01:25:52.333Z,4.57
2022-11-03T01:28:19.428Z,4.43
2022-11-03T01:30:46.493Z,4.00
2022-11-03T01:33:13.595Z,4.50
2022-11-03T01:35:40.663Z,4.77
2022-11-03T01:38:07.764Z,4.40
2022-11-03T01:40:36.197Z,3.87
2022-11-03T01:43:15.839Z,3.90
2022-11-03T01:45:43.340Z,4.67
2022-11-03T01:48:12.080Z,4.80
2022-11-03T01:50:40.208Z,5.40
2022-11-03T01:53:08.306Z,5.43
2022-11-03T01:55:38.457Z,4.03
2022-11-03T01:58:07.953Z,4.67
2022-11-03T02:00:35.585Z,5.20
2022-11-03T02:03:02.763Z,4.80
2022-11-03T02:05:30.470Z,6.40
2022-11-03T02:07:59.836Z,5.30
2022-11-03T02:10:27.011Z,5.90
2022-11-03T02:12:55.717Z,4.00
2022-11-03T02:15:23.488Z,4.50
2022-11-03T02:17:51.770Z,4.63
2022-11-03T02:20:20.210Z,4.67
2022-11-03T02:23:05.531Z,5.50
2022-11-03T02:25:36.455Z,4.00
2022-11-03T02:28:04.448Z,4.40
2022-11-03T02:30:35.444Z,5.53
2022-11-03T02:33:06.320Z,4.30
2022-11-03T02:35:37.091Z,5.00
2022-11-03T02:38:06.474Z,4.80
2022-11-03T02:40:35.004Z,4.57
2022-11-03T02:43:04.730Z,4.50
2022-11-03T02:45:32.259Z,4.00
2022-11-03T02:48:00.669Z,4.10
2022-11-03T02:50:28.476Z,4.63
2022-11-03T02:52:55.840Z,4.50
2022-11-03T02:55:28.949Z,3.97
2022-11-03T02:57:58.964Z,4.23
2022-11-03T03:00:28.315Z,4.53
2022-11-03T03:02:58.050Z,4.30
2022-11-03T03:05:27.360Z,4.33
2022-11-03T03:07:57.088Z,5.60
2022-11-03T03:10:25.771Z,5.03
2022-11-03T03:12:54.019Z,4.20
2022-11-03T03:15:24.130Z,4.73
2022-11-03T03:17:54.803Z,5.50
2022-11-03T03:20:24.751Z,4.13
2022-11-03T03:22:54.243Z,3.90
2022-11-03T03:25:23.044Z,3.93
2022-11-03T03:27:51.250Z,4.70
2022-11-03T03:30:18.939Z,4.83
2022-11-03T03:32:47.446Z,4.40
2022-11-03T03:35:18.193Z,4.70
2022-11-03T03:37:47.299Z,4.10
2022-11-03T03:40:16.935Z,4.23
2022-11-03T03:42:44.784Z,3.93
2022-11-03T03:45:12.772Z,3.80
2022-11-03T03:47:39.963Z,4.20
2022-11-03T03:50:07.376Z,4.03
2022-11-03T03:52:35.883Z,4.00
2022-11-03T03:55:03.013Z,3.60
2022-11-03T03:57:31.892Z,4.30
2022-11-03T03:59:58.985Z,5.30
2022-11-03T04:02:26.131Z,4.40
2022-11-03T04:04:53.297Z,4.40
2022-11-03T04:07:20.393Z,4.10
2022-11-03T04:09:48.843Z,3.97
2022-11-03T04:12:16.022Z,5.03
2022-11-03T04:14:43.135Z,5.00
2022-11-03T04:17:16.910Z,4.50
2022-11-03T04:19:44.002Z,5.27
2022-11-03T04:22:11.114Z,4.90
2022-11-03T04:24:38.203Z,5.40
2022-11-03T04:27:20.171Z,4.83
2022-11-03T04:29:47.269Z,4.57
2022-11-03T04:32:15.467Z,4.83
2022-11-03T04:34:42.586Z,4.47
2022-11-03T04:37:10.678Z,5.27
2022-11-03T04:39:37.804Z,4.80
2022-11-03T04:42:05.543Z,5.03
2022-11-03T04:44:34.084Z,4.70
2022-11-03T04:47:01.136Z,4.37
2022-11-03T04:49:28.251Z,4.50
2022-11-03T04:51:55.364Z,4.23
2022-11-03T04:54:23.864Z,3.93
2022-11-03T04:56:51.107Z,5.93
2022-11-03T04:59:18.252Z,3.73
2022-11-03T05:01:46.962Z,3.90
2022-11-03T05:04:14.999Z,4.97
2022-11-03T05:06:42.302Z,4.57
2022-11-03T05:09:14.319Z,4.90
2022-11-03T05:11:42.763Z,4.43
2022-11-03T05:14:15.022Z,4.23
2022-11-03T05:16:42.671Z,3.77
2022-11-03T05:19:13.249Z,3.80
2022-11-03T05:21:40.377Z,4.07
2022-11-03T05:24:10.815Z,6.60
2022-11-03T05:26:38.111Z,4.73
2022-11-03T05:29:09.955Z,4.10
2022-11-03T05:31:37.643Z,4.03
2022-11-03T05:34:14.440Z,4.03
2022-11-03T05:36:42.867Z,3.90
2022-11-03T05:39:18.084Z,3.97
2022-11-03T05:41:45.198Z,3.70
2022-11-03T05:44:17.189Z,3.50
2022-11-03T05:46:44.300Z,3.60
2022-11-03T05:49:11.406Z,3.33
2022-11-03T05:51:39.450Z,3.57
2022-11-03T05:54:17.025Z,3.00
2022-11-03T05:56:46.749Z,3.10
2022-11-03T05:59:14.542Z,3.97
2022-11-03T06:01:42.037Z,3.37
2022-11-03T06:04:14.865Z,3.17
2022-11-03T06:06:41.968Z,3.20
2022-11-03T06:09:12.594Z,3.80
2022-11-03T06:11:39.969Z,4.70
2022-11-03T06:14:13.313Z,3.27
2022-11-03T06:16:42.198Z,3.70
2022-11-03T06:19:22.808Z,3.77
2022-11-03T06:21:50.628Z,3.83
2022-11-03T06:24:21.456Z,3.53
2022-11-03T06:26:49.165Z,4.03
2022-11-03T06:29:17.296Z,4.03
2022-11-03T06:31:45.618Z,4.00
2022-11-03T06:34:19.187Z,4.70
2022-11-03T06:36:46.318Z,3.70
2022-11-03T06:39:17.991Z,3.70
2022-11-03T06:41:46.435Z,3.93
2022-11-03T06:44:20.632Z,3.23
2022-11-03T06:46:47.760Z,3.00
2022-11-03T06:49:29.037Z,4.23
2022-11-03T06:51:56.572Z,4.23
2022-11-03T06:54:23.834Z,3.30
2022-11-03T06:56:52.289Z,4.13
2022-11-03T06:59:20.290Z,3.67
2022-11-03T07:01:54.934Z,3.50
2022-11-03T07:04:23.231Z,4.77
2022-11-03T07:06:53.292Z,3.40
2022-11-03T07:09:21.911Z,5.20
2022-11-03T07:11:49.966Z,4.33
2022-11-03T07:14:18.833Z,3.97
2022-11-03T07:16:47.007Z,3.93
2022-11-03T07:19:17.387Z,4.60
2022-11-03T07:21:46.127Z,3.90
2022-11-03T07:24:16.777Z,3.40
2022-11-03T07:26:43.865Z,3.90
2022-11-03T07:29:13.558Z,3.80
2022-11-03T07:31:42.030Z,4.50
2022-11-03T07:34:11.705Z,4.30
2022-11-03T07:36:38.787Z,4.63
2022-11-03T07:39:06.886Z,3.97
2022-11-03T07:41:34.815Z,4.37
2022-11-03T07:44:02.360Z,4.10
2022-11-03T07:46:29.607Z,3.93
2022-11-03T07:48:58.891Z,4.33
2022-11-03T07:51:27.855Z,4.57
2022-11-03T07:53:57.207Z,3.60
2022-11-03T07:56:25.640Z,3.63
2022-11-03T07:58:54.784Z,3.97
2022-11-03T08:01:24.756Z,3.90
2022-11-03T08:03:52.396Z,4.50
2022-11-03T08:06:20.864Z,4.20
2022-11-03T08:08:47.933Z,4.00
2022-11-03T08:13:47.041Z,4.30
2022-11-03T08:16:14.142Z,4.20
2022-11-03T08:18:41.238Z,3.80
2022-11-03T08:21:08.352Z,3.73
2022-11-03T08:23:36.790Z,4.17
2022-11-03T08:26:04.168Z,3.70
2022-11-03T08:28:31.591Z,4.27
2022-11-03T08:31:01.863Z,4.00
2022-11-03T08:36:01.673Z,3.87
2022-11-03T08:38:28.946Z,4.03
2022-11-03T08:40:57.849Z,4.93
2022-11-03T08:43:25.227Z,4.50
2022-11-03T08:45:52.323Z,3.87
2022-11-03T08:48:19.460Z,3.67
2022-11-03T08:50:46.581Z,4.30
2022-11-03T08:53:13.717Z,3.90
2022-11-03T08:55:40.825Z,4.47
2022-11-03T08:58:09.545Z,5.53
2022-11-03T09:00:40.738Z,3.77
2022-11-03T09:03:08.436Z,4.70
2022-11-03T09:05:35.723Z,4.20
2022-11-03T09:10:49.873Z,4.00
2022-11-03T09:13:18.447Z,3.53
2022-11-03T09:15:45.552Z,4.10
2022-11-03T09:18:12.665Z,3.40
2022-11-03T09:20:39.856Z,4.37
2022-11-03T09:23:06.973Z,3.90
2022-11-03T09:25:34.196Z,3.50
2022-11-03T09:28:01.298Z,3.10
2022-11-03T09:30:29.723Z,3.97
2022-11-03T09:32:56.837Z,3.40
2022-11-03T09:35:23.926Z,3.60
2022-11-03T09:37:51.053Z,3.07
2022-11-03T09:40:18.329Z,2.50
2022-11-03T09:42:45.753Z,3.73
2022-11-03T09:45:12.887Z,3.30
2022-11-03T09:47:42.448Z,2.73
2022-11-03T09:50:13.510Z,2.63
2022-11-03T09:52:40.685Z,2.00
2022-11-03T09:55:13.564Z,2.90
2022-11-03T09:57:40.688Z,3.07
2022-11-03T10:00:08.692Z,3.47
2022-11-03T10:02:37.325Z,3.27
2022-11-03T10:05:10.993Z,3.23
2022-11-03T10:07:38.569Z,3.60
2022-11-03T10:10:06.186Z,4.13
2022-11-03T10:12:36.171Z,3.53
2022-11-03T10:15:03.346Z,4.20
2022-11-03T10:17:31.104Z,3.67
2022-11-03T10:19:58.773Z,3.53
2022-11-03T10:22:27.218Z,3.53
2022-11-03T10:25:09.180Z,4.00
2022-11-03T10:27:36.278Z,3.40
2022-11-03T10:30:07.631Z,3.90
2022-11-03T10:32:34.999Z,3.20
2022-11-03T10:35:02.564Z,3.70
2022-11-03T10:37:31.046Z,3.03
2022-11-03T10:39:58.341Z,3.43
2022-11-03T10:42:29.352Z,2.63
2022-11-03T10:45:11.085Z,2.80
2022-11-03T10:47:38.251Z,3.03
2022-11-03T10:50:18.037Z,2.80
2022-11-03T10:52:46.555Z,2.40
2022-11-03T10:55:13.703Z,2.80
2022-11-03T10:57:40.858Z,2.50
2022-11-03T11:00:13.087Z,2.50
2022-11-03T11:02:41.808Z,2.10
2022-11-03T11:05:13.248Z,2.13
2022-11-03T11:07:41.619Z,2.63
2022-11-03T11:10:13.281Z,2.57
2022-11-03T11:12:40.470Z,2.90
2022-11-03T11:15:22.477Z,2.50
2022-11-03T11:17:49.575Z,2.13
2022-11-03T11:20:34.640Z,2.47
2022-11-03T11:23:20.251Z,2.10
2022-11-03T11:26:13.624Z,2.50
2022-11-03T11:28:41.364Z,2.20
2022-11-03T11:31:27.226Z,2.10
2022-11-03T11:34:09.214Z,2.70
2022-11-03T11:36:36.862Z,2.57
2022-11-03T11:39:04.304Z,2.27
2022-11-03T11:41:49.873Z,2.93
2022-11-03T11:44:35.903Z,2.23
2022-11-03T11:47:04.336Z,3.07
2022-11-03T11:49:31.425Z,2.40
2022-11-03T11:52:01.349Z,2.23
2022-11-03T11:54:28.633Z,2.10
2022-11-03T11:56:55.810Z,1.77
2022-11-03T11:59:25.733Z,2.47
2022-11-03T12:01:54.292Z,2.80
2022-11-03T12:04:24.604Z,2.10
2022-11-03T12:06:51.758Z,2.77
2022-11-03T12:09:19.789Z,3.03
2022-11-03T12:11:50.137Z,2.17
2022-11-03T12:14:25.683Z,2.43
2022-11-03T12:16:53.089Z,2.33
2022-11-03T12:19:37.636Z,2.67
2022-11-03T12:22:05.124Z,2.40
2022-11-03T12:24:52.907Z,2.30
2022-11-03T12:27:39.851Z,2.17
2022-11-03T12:30:12.043Z,2.87
2022-11-03T12:32:39.187Z,3.50
2022-11-03T12:35:08.715Z,2.70
2022-11-03T12:37:35.921Z,2.80
2022-11-03T12:40:03.011Z,1.90
2022-11-03T12:42:30.113Z,2.80
2022-11-03T12:44:57.230Z,1.70
2022-11-03T12:47:24.303Z,2.57
2022-11-03T12:49:51.405Z,2.53
2022-11-03T12:52:19.879Z,2.43
2022-11-03T12:54:46.970Z,2.23
2022-11-03T12:57:14.069Z,2.40
2022-11-03T12:59:41.399Z,1.90
2022-11-03T13:02:09.218Z,3.47
2022-11-03T13:04:36.368Z,2.60
2022-11-03T13:07:03.461Z,2.30
2022-11-03T13:09:31.914Z,2.60
2022-11-03T13:11:59.010Z,3.43
2022-11-03T13:14:26.106Z,2.47
2022-11-03T13:16:53.252Z,3.23
2022-11-03T13:19:20.332Z,2.60
2022-11-03T13:21:47.501Z,2.53
2022-11-03T13:24:14.615Z,1.90
2022-11-03T13:26:43.014Z,2.63
2022-11-03T13:29:10.117Z,2.70
2022-11-03T13:31:37.204Z,2.63
2022-11-03T13:34:04.298Z,2.17
2022-11-03T13:36:31.495Z,2.50
2022-11-03T13:38:58.664Z,2.70
2022-11-03T13:41:25.752Z,3.23
2022-11-03T13:43:54.199Z,2.20
2022-11-03T13:46:21.333Z,3.00
2022-11-03T13:51:35.507Z,3.30
2022-11-03T13:59:38.130Z,2.30
2022-11-03T14:04:52.683Z,2.73
2022-11-03T14:07:19.790Z,2.27
2022-11-03T14:09:46.960Z,2.80
2022-11-03T14:12:14.106Z,2.30
2022-11-03T14:14:42.563Z,2.43
2022-11-03T14:17:09.646Z,3.20
2022-11-03T14:19:43.760Z,3.13
2022-11-03T14:22:13.259Z,2.57
2022-11-03T14:24:40.671Z,3.40
2022-11-03T14:27:07.753Z,2.50
2022-11-03T14:29:34.831Z,3.13
2022-11-03T14:32:04.315Z,3.60
2022-11-03T14:34:32.289Z,2.60
2022-11-03T14:36:59.545Z,2.67
2022-11-03T14:39:26.849Z,3.60
2022-11-03T14:41:53.949Z,4.30
2022-11-03T14:44:21.053Z,3.07
2022-11-03T14:46:48.197Z,3.00
2022-11-03T14:49:16.633Z,2.73
2022-11-03T14:51:43.726Z,3.73
2022-11-03T14:54:10.854Z,3.00
2022-11-03T14:56:37.971Z,3.10
2022-11-03T14:59:05.041Z,3.30
2022-11-03T15:01:32.293Z,3.40
2022-11-03T15:03:59.441Z,2.60
2022-11-03T15:06:27.949Z,3.60
2022-11-03T15:08:56.610Z,3.70
2022-11-03T15:11:24.090Z,3.53
2022-11-03T15:13:52.683Z,4.00
2022-11-03T15:16:19.978Z,3.57
2022-11-03T15:18:47.081Z,4.57
2022-11-03T15:21:14.445Z,4.57
2022-11-03T15:26:30.236Z,3.43
2022-11-03T15:28:57.319Z,3.80
2022-11-03T15:31:24.412Z,5.70
2022-11-03T15:33:51.511Z,5.00
2022-11-03T15:36:18.616Z,4.80
2022-11-03T15:38:47.087Z,4.60
2022-11-03T15:41:14.223Z,4.90
2022-11-03T15:43:41.356Z,4.67
2022-11-03T15:46:08.490Z,6.30
2022-11-03T15:48:35.584Z,4.77
2022-11-03T15:51:02.692Z,4.13
2022-11-03T15:53:29.808Z,4.40
2022-11-03T15:55:58.276Z,4.10
2022-11-03T15:58:25.445Z,5.13
2022-11-03T16:00:52.666Z,4.07
2022-11-03T16:03:19.917Z,3.90
2022-11-03T16:05:47.069Z,4.70
2022-11-03T16:08:14.156Z,4.63
2022-11-03T16:10:47.964Z,4.20
2022-11-03T16:13:19.123Z,4.30
2022-11-03T16:15:46.223Z,4.07
2022-11-03T16:18:13.317Z,4.13
2022-11-03T16:20:40.419Z,4.73
2022-11-03T16:23:07.529Z,4.67
2022-11-03T16:25:34.624Z,4.60
2022-11-03T16:28:02.191Z,4.73
2022-11-03T16:30:30.624Z,5.37
2022-11-03T16:32:57.724Z,5.03
2022-11-03T16:35:24.916Z,5.50
2022-11-03T16:37:52.008Z,5.00
2022-11-03T16:40:20.056Z,4.23
2022-11-03T16:42:47.465Z,4.37
2022-11-03T16:45:16.003Z,5.03
2022-11-03T16:47:44.453Z,6.47
2022-11-03T16:50:11.709Z,4.73
2022-11-03T16:52:38.832Z,6.63
2022-11-03T16:55:06.658Z,4.97
2022-11-03T16:57:33.791Z,6.37
2022-11-03T17:00:00.880Z,5.13
2022-11-03T17:02:28.183Z,5.90
2022-11-03T17:04:56.748Z,4.80
2022-11-03T17:07:23.819Z,4.73
2022-11-03T17:09:50.920Z,4.80
2022-11-03T17:12:17.989Z,4.90
2022-11-03T17:14:45.115Z,4.57
2022-11-03T17:17:12.232Z,5.77
2022-11-03T17:19:39.329Z,4.97
2022-11-03T17:22:07.826Z,6.97
2022-11-03T17:24:34.974Z,6.67
2022-11-03T17:27:03.649Z,8.03
2022-11-03T17:29:33.465Z,7.33
2022-11-03T17:32:01.219Z,5.97
2022-11-03T17:34:28.383Z,6.03
2022-11-03T17:36:55.552Z,5.60
2022-11-03T17:42:05.560Z,8.90
2022-11-03T17:44:32.661Z,9.47
2022-11-03T17:46:59.742Z,6.93
2022-11-03T17:49:26.912Z,6.27
2022-11-03T17:51:54.047Z,5.63
2022-11-03T17:54:21.144Z,4.83
2022-11-03T17:56:49.605Z,4.73
2022-11-03T17:59:16.816Z,5.00
2022-11-03T18:01:44.184Z,6.30
2022-11-03T18:04:12.377Z,5.70
2022-11-03T18:06:39.468Z,6.40
2022-11-03T18:09:06.707Z,5.30
2022-11-03T18:11:34.192Z,6.17
2022-11-03T18:14:04.083Z,5.63
2022-11-03T18:16:32.283Z,6.17
2022-11-03T18:18:59.372Z,5.53
2022-11-03T18:21:27.149Z,6.07
2022-11-03T18:23:54.257Z,6.43
2022-11-03T18:26:22.603Z,6.40
2022-11-03T18:28:49.726Z,4.57
2022-11-03T18:31:21.377Z,5.83
2022-11-03T18:33:48.835Z,5.90
2022-11-03T18:36:16.291Z,6.73
2022-11-03T18:38:44.134Z,6.20
2022-11-03T18:41:13.427Z,7.07
2022-11-03T18:43:40.559Z,5.20
2022-11-03T18:46:08.519Z,6.37
2022-11-03T18:48:36.976Z,5.93
2022-11-03T18:51:04.162Z,6.13
2022-11-03T18:53:31.268Z,6.37
2022-11-03T18:56:00.341Z,6.67
2022-11-03T18:58:27.555Z,6.63
2022-11-03T19:00:54.978Z,6.47
2022-11-03T19:03:23.217Z,7.00
2022-11-03T19:05:53.296Z,6.83
2022-11-03T19:08:22.350Z,6.80
2022-11-03T19:10:49.567Z,6.00
2022-11-03T19:13:17.604Z,6.03
2022-11-03T19:15:44.770Z,5.33
2022-11-03T19:18:12.845Z,6.37
2022-11-03T19:20:39.945Z,6.53
2022-11-03T19:23:09.324Z,6.67
2022-11-03T19:25:37.479Z,5.73
2022-11-03T19:28:04.739Z,5.50
2022-11-03T19:30:32.060Z,6.83
2022-11-03T19:32:59.152Z,5.73
2022-11-03T19:35:29.338Z,5.80
2022-11-03T19:37:59.309Z,5.63
2022-11-03T19:40:27.774Z,6.10
2022-11-03T19:42:54.954Z,6.63
2022-11-03T19:45:22.098Z,5.40
2022-11-03T19:48:18.121Z,6.33
2022-11-03T19:50:38.672Z,5.33
2022-11-03T19:53:06.897Z,5.70
2022-11-03T19:55:37.026Z,6.27
2022-11-03T19:58:08.286Z,5.53
2022-11-03T20:00:35.699Z,5.80
2022-11-03T20:03:02.851Z,5.57
2022-11-03T20:05:30.953Z,6.00
2022-11-03T20:08:00.356Z,6.40
2022-11-03T20:10:30.402Z,6.60
2022-11-03T20:13:01.931Z,6.23
2022-11-03T20:15:29.069Z,5.73
2022-11-03T20:17:56.131Z,5.70
2022-11-03T20:20:24.619Z,5.97
2022-11-03T20:22:53.288Z,5.63
2022-11-03T20:25:21.645Z,6.13
2022-11-03T20:27:49.062Z,5.50
2022-11-03T20:30:18.939Z,6.50
2022-11-03T20:32:46.534Z,7.50
2022-11-03T20:35:15.666Z,6.70
2022-11-03T20:37:47.807Z,6.23
2022-11-03T20:40:15.717Z,6.53
2022-11-03T20:42:43.488Z,7.27
2022-11-03T20:45:13.964Z,6.90
2022-11-03T20:47:47.188Z,6.90
2022-11-03T20:50:16.285Z,6.70
2022-11-03T20:52:43.851Z,6.40
2022-11-03T20:55:15.103Z,6.20
2022-11-03T20:57:42.246Z,6.63
2022-11-03T21:00:12.553Z,6.17
2022-11-03T21:02:39.702Z,5.47
2022-11-03T21:05:10.408Z,6.70
2022-11-03T21:07:37.498Z,6.80
2022-11-03T21:10:04.734Z,6.53
2022-11-03T21:12:31.934Z,7.00
2022-11-03T21:14:59.051Z,6.30
2022-11-03T21:17:26.103Z,7.73
2022-11-03T21:19:53.188Z,6.40
2022-11-03T21:25:12.128Z,6.60
2022-11-03T21:27:41.706Z,6.63
2022-11-03T21:30:10.746Z,6.90
2022-11-03T21:32:37.829Z,6.90
2022-11-03T21:35:05.144Z,7.10
2022-11-03T21:37:33.823Z,7.70
2022-11-03T21:40:00.945Z,7.40
2022-11-03T21:42:28.018Z,7.20
2022-11-03T21:44:55.114Z,7.60
2022-11-03T21:47:22.284Z,6.93
2022-11-03T21:49:49.445Z,8.20
2022-11-03T21:52:17.288Z,7.43
2022-11-03T21:54:45.749Z,7.07
2022-11-03T21:57:13.749Z,6.90
2022-11-03T21:59:40.846Z,6.60
2022-11-03T22:02:08.229Z,7.40
2022-11-03T22:04:35.354Z,7.00
2022-11-03T22:07:02.462Z,6.60
2022-11-03T22:09:29.530Z,6.90
2022-11-03T22:11:57.951Z,5.83
2022-11-03T22:14:25.016Z,6.30
2022-11-03T22:16:52.154Z,6.47
2022-11-03T22:19:19.830Z,6.77
2022-11-03T22:21:46.927Z,6.30
2022-11-03T22:24:14.050Z,5.40
2022-11-03T22:26:41.171Z,5.40
2022-11-03T22:29:09.608Z,5.70
2022-11-03T22:31:36.687Z,5.03
2022-11-03T22:34:03.770Z,4.10
2022-11-03T22:36:30.852Z,4.07
2022-11-03T22:38:57.935Z,3.30
2022-11-03T22:41:25.016Z,3.37
2022-11-03T22:43:52.118Z,2.50
2022-11-03T22:46:20.590Z,2.20
2022-11-03T22:48:47.663Z,2.60
2022-11-03T22:51:15.460Z,1.90
2022-11-03T22:53:43.292Z,2.50
2022-11-03T22:56:10.376Z,2.77
2022-11-03T22:58:37.493Z,2.70
2022-11-03T23:01:05.369Z,2.20
2022-11-03T23:03:34.151Z,2.50
2022-11-03T23:06:02.152Z,2.07
2022-11-03T23:08:30.255Z,1.60
2022-11-03T23:10:57.340Z,1.53
2022-11-03T23:13:24.427Z,1.43
2022-11-03T23:15:51.492Z,1.40
2022-11-03T23:18:18.584Z,1.30
2022-11-03T23:20:47.004Z,1.63
2022-11-03T23:23:14.128Z,1.30
2022-11-03T23:25:41.221Z,1.60
2022-11-03T23:28:08.304Z,1.50
2022-11-03T23:30:35.402Z,1.17
2022-11-03T23:33:02.462Z,1.67
2022-11-03T23:35:29.543Z,1.40
2022-11-03T23:37:59.350Z,2.37
2022-11-03T23:40:26.468Z,2.47
2022-11-03T23:42:53.518Z,1.83
2022-11-03T23:45:20.623Z,2.37
2022-11-03T23:47:47.730Z,1.97
2022-11-03T23:50:14.798Z,1.50
2022-11-03T23:52:41.887Z,1.30
2022-11-03T23:55:10.544Z,1.50
2022-11-03T23:57:37.647Z,1.67
